Current Conditions
Clear
Conditions



Pressure
29.78 (inHG) - 1008.47 (mb)
Visibility

10.0 (miles) - 16.1 (km)
Temperature
63  °F
Temperature
57  °F
Dewpoint
83  %
 Humidity
Wind Speed
8  mph
7  kts
13  km/h
3.6  m/s
Wind Direction
N
45°
E
90°
135°
S
180°
225°
W
270°
315°
 310°

North West
Airport Data
KSTC
Saint Cloud Regional Airport
Metar :KSTC 131153Z 31007KT 10SM CLR 17/14 A2978 RMK AO2 SLP088 70066 T01720139 10172 20139 53027
Thu 13th June 06:53 am
Raw Metar Info
Raw METAR is the most common format in the world for the transmission of observational weather data. It is highly standardized through the International Civil Aviation Organization (ICAO), which allows it to be understood throughout most of the world.
API Info
Data Provided by
https://www.checkwx.com/weather/KSTC

Aviation Weather providing METAR, TAF, AIRMET, SIGMET and OUTLOOK Weather Reports
© Info
CSS/SVG/PHP scripts were developed by weather34 for use in the weather34 template © 2015-2024

Guide Info provided by Metar-Wikipedia